PWSweather.com
Personal Weather Stations
Station Observations
KD0MBL
Pueblo West, Pueblo West, CO 81007

Pueblo WestPueblo West, CO 81007

Lat: 38.380276, Lon: -104.7134279

Elevation: 5220

Station Type: Davis VantageVue

Latest ConditionsUpdated 1:22:36 PM MDT Sunday, Mar 29, 2015
Currently Today's Max Today's Min Today's Average
Temperature 60.9°F16.1°C 64.9°F18.3°C 48.1°F8.9°C 56.1°F13.4°C
Dew Point 21.8°F-5.7°C 30.3°F-0.9°C 20.0°F-6.7°C 25.2°F-3.8°C
Winds 6.0 mph SE9.7 kmh SE 20.0 mph NE32.2 kmh NE - 8.9 mph 14.3 kmh
Wind Gusts 12.0 mph19.3 kmh 27.0 mph43.5 kmh - -
Humidity 22% 47% 20% 31%
Pressure 30.13 in1020.3 mb 30.16 in1021.3 mb 29.83 in1010.2 mb -
Hour Temp Dew Point Humidity Winds Wind Gusts Pressure Precip Precip Rate Daily Precip Total
01:22 PM 60.9°F16.1°C 21.8°F-5.7°C 22% 6.0 mph SE9.7 kmh SE 12.0 mph19.3 kmh 30.13 in1020.3 mb 0.00 in0.0 mm 0.00 in0.0 mm 0.00 in0.0 mm
01:17 PM 60.0°F15.6°C 21.0°F-6.1°C 22% 8.0 mph SE12.9 kmh SE 15.0 mph24.1 kmh 30.13 in1020.3 mb 0.00 in0.0 mm 0.00 in0.0 mm 0.00 in0.0 mm
01:12 PM 60.4°F15.8°C 21.3°F-5.9°C 22% 9.0 mph ESE14.5 kmh ESE 15.0 mph24.1 kmh 30.13 in1020.3 mb 0.00 in0.0 mm 0.00 in0.0 mm 0.00 in0.0 mm
01:07 PM 60.4°F15.8°C 22.4°F-5.3°C 23% 6.0 mph E9.7 kmh E 13.0 mph20.9 kmh 30.13 in1020.3 mb 0.00 in0.0 mm 0.00 in0.0 mm 0.00 in0.0 mm
01:02 PM 60.4°F15.8°C 22.4°F-5.3°C 23% 4.0 mph E6.4 kmh E 10.0 mph16.1 kmh 30.13 in1020.3 mb 0.00 in0.0 mm 0.00 in0.0 mm 0.00 in0.0 mm
12:57 PM 59.5°F15.3°C 21.6°F-5.8°C 23% 5.0 mph ESE8.0 kmh ESE 10.0 mph16.1 kmh 30.13 in1020.3 mb 0.00 in0.0 mm 0.00 in0.0 mm 0.00 in0.0 mm
12:52 PM 59.3°F15.2°C 20.4°F-6.4°C 22% 5.0 mph SE8.0 kmh SE 12.0 mph19.3 kmh 30.14 in1020.7 mb 0.00 in0.0 mm 0.00 in0.0 mm 0.00 in0.0 mm
12:47 PM 59.6°F15.3°C 21.7°F-5.7°C 23% 7.0 mph SE11.3 kmh SE 13.0 mph20.9 kmh 30.14 in1020.7 mb 0.00 in0.0 mm 0.00 in0.0 mm 0.00 in0.0 mm
12:42 PM 59.2°F15.1°C 21.4°F-5.9°C 23% 6.0 mph SE9.7 kmh SE 15.0 mph24.1 kmh 30.14 in1020.7 mb 0.00 in0.0 mm 0.00 in0.0 mm 0.00 in0.0 mm
12:37 PM 59.0°F15.0°C 22.2°F-5.4°C 24% 7.0 mph ESE11.3 kmh ESE 15.0 mph24.1 kmh 30.14 in1020.7 mb 0.00 in0.0 mm 0.00 in0.0 mm 0.00 in0.0 mm
12:32 PM 58.9°F14.9°C 21.1°F-6.1°C 23% 7.0 mph E11.3 kmh E 13.0 mph20.9 kmh 30.15 in1021.0 mb 0.00 in0.0 mm 0.00 in0.0 mm 0.00 in0.0 mm
12:27 PM 59.5°F15.3°C 21.6°F-5.8°C 23% 7.0 mph S11.3 kmh S 13.0 mph20.9 kmh 30.14 in1020.7 mb 0.00 in0.0 mm 0.00 in0.0 mm 0.00 in0.0 mm
12:22 PM 58.8°F14.9°C 21.0°F-6.1°C 23% 7.0 mph S11.3 kmh S 13.0 mph20.9 kmh 30.15 in1021.0 mb 0.00 in0.0 mm 0.00 in0.0 mm 0.00 in0.0 mm
12:17 PM 58.6°F14.8°C 21.9°F-5.6°C 24% 7.0 mph SE11.3 kmh SE 13.0 mph20.9 kmh 30.15 in1021.0 mb 0.00 in0.0 mm 0.00 in0.0 mm 0.00 in0.0 mm
12:12 PM 57.9°F14.4°C 21.3°F-5.9°C 24% 6.0 mph E9.7 kmh E 13.0 mph20.9 kmh 30.15 in1021.0 mb 0.00 in0.0 mm 0.00 in0.0 mm 0.00 in0.0 mm
12:07 PM 57.5°F14.2°C 20.9°F-6.2°C 24% 5.0 mph E8.0 kmh E 10.0 mph16.1 kmh 30.16 in1021.3 mb 0.00 in0.0 mm 0.00 in0.0 mm 0.00 in0.0 mm
12:02 PM 57.3°F14.1°C 20.8°F-6.2°C 24% 5.0 mph E8.0 kmh E 14.0 mph22.5 kmh 30.15 in1021.0 mb 0.00 in0.0 mm 0.00 in0.0 mm 0.00 in0.0 mm
11:57 AM 57.6°F14.2°C 20.0°F-6.7°C 23% 6.0 mph E9.7 kmh E 14.0 mph22.5 kmh 30.16 in1021.3 mb 0.00 in0.0 mm 0.00 in0.0 mm 0.00 in0.0 mm
11:52 AM 57.8°F14.3°C 21.2°F-6.0°C 24% 5.0 mph ESE8.0 kmh ESE 11.0 mph17.7 kmh 30.16 in1021.3 mb 0.00 in0.0 mm 0.00 in0.0 mm 0.00 in0.0 mm
11:47 AM 57.6°F14.2°C 22.0°F-5.6°C 25% 6.0 mph E9.7 kmh E 11.0 mph17.7 kmh 30.16 in1021.3 mb 0.00 in0.0 mm 0.00 in0.0 mm 0.00 in0.0 mm
11:42 AM 56.8°F13.8°C 20.3°F-6.5°C 24% 7.0 mph ENE11.3 kmh ENE 12.0 mph19.3 kmh 30.16 in1021.3 mb 0.00 in0.0 mm 0.00 in0.0 mm 0.00 in0.0 mm
11:37 AM 56.7°F13.7°C 21.2°F-6.0°C 25% 8.0 mph ENE12.9 kmh ENE 13.0 mph20.9 kmh 30.16 in1021.3 mb 0.00 in0.0 mm 0.00 in0.0 mm 0.00 in0.0 mm
11:32 AM 56.4°F13.6°C 21.0°F-6.1°C 25% 8.0 mph E12.9 kmh E 14.0 mph22.5 kmh 30.16 in1021.3 mb 0.00 in0.0 mm 0.00 in0.0 mm 0.00 in0.0 mm
11:27 AM 55.9°F13.3°C 20.5°F-6.4°C 25% 9.0 mph ENE14.5 kmh ENE 14.0 mph22.5 kmh 30.16 in1021.3 mb 0.00 in0.0 mm 0.00 in0.0 mm 0.00 in0.0 mm
11:22 AM 55.9°F13.3°C 20.5°F-6.4°C 25% 8.0 mph NE12.9 kmh NE 14.0 mph22.5 kmh 30.16 in1021.3 mb 0.00 in0.0 mm 0.00 in0.0 mm 0.00 in0.0 mm
11:17 AM 55.7°F13.2°C 21.3°F-5.9°C 26% 10.0 mph NE16.1 kmh NE 19.0 mph30.6 kmh 30.16 in1021.3 mb 0.00 in0.0 mm 0.00 in0.0 mm 0.00 in0.0 mm
11:12 AM 55.3°F12.9°C 20.0°F-6.7°C 25% 11.0 mph NE17.7 kmh NE 19.0 mph30.6 kmh 30.16 in1021.3 mb 0.00 in0.0 mm 0.00 in0.0 mm 0.00 in0.0 mm
11:07 AM 55.3°F12.9°C 21.0°F-6.1°C 26% 11.0 mph NE17.7 kmh NE 19.0 mph30.6 kmh 30.16 in1021.3 mb 0.00 in0.0 mm 0.00 in0.0 mm 0.00 in0.0 mm
11:02 AM 55.1°F12.8°C 20.8°F-6.2°C 26% 12.0 mph NE19.3 kmh NE 19.0 mph30.6 kmh 30.16 in1021.3 mb 0.00 in0.0 mm 0.00 in0.0 mm 0.00 in0.0 mm
10:57 AM 54.9°F12.7°C 20.6°F-6.3°C 26% 13.0 mph NE20.9 kmh NE 18.0 mph29.0 kmh 30.16 in1021.3 mb 0.00 in0.0 mm 0.00 in0.0 mm 0.00 in0.0 mm
10:52 AM 54.9°F12.7°C 20.6°F-6.3°C 26% 14.0 mph NE22.5 kmh NE 18.0 mph29.0 kmh 30.16 in1021.3 mb 0.00 in0.0 mm 0.00 in0.0 mm 0.00 in0.0 mm
10:47 AM 54.9°F12.7°C 21.5°F-5.8°C 27% 14.0 mph NE22.5 kmh NE 22.0 mph35.4 kmh 30.16 in1021.3 mb 0.00 in0.0 mm 0.00 in0.0 mm 0.00 in0.0 mm
10:42 AM 54.8°F12.7°C 20.5°F-6.4°C 26% 15.0 mph NE24.1 kmh NE 22.0 mph35.4 kmh 30.16 in1021.3 mb 0.00 in0.0 mm 0.00 in0.0 mm 0.00 in0.0 mm
10:37 AM 54.6°F12.6°C 20.4°F-6.4°C 26% 15.0 mph NE24.1 kmh NE 22.0 mph35.4 kmh 30.16 in1021.3 mb 0.00 in0.0 mm 0.00 in0.0 mm 0.00 in0.0 mm
10:32 AM 54.6°F12.6°C 20.4°F-6.4°C 26% 16.0 mph NE25.7 kmh NE 23.0 mph37.0 kmh 30.16 in1021.3 mb 0.00 in0.0 mm 0.00 in0.0 mm 0.00 in0.0 mm
10:27 AM 54.6°F12.6°C 21.2°F-6.0°C 27% 16.0 mph NE25.7 kmh NE 23.0 mph37.0 kmh 30.16 in1021.3 mb 0.00 in0.0 mm 0.00 in0.0 mm 0.00 in0.0 mm
10:22 AM 55.1°F12.8°C 20.8°F-6.2°C 26% 15.0 mph NE24.1 kmh NE 22.0 mph35.4 kmh 30.16 in1021.3 mb 0.00 in0.0 mm 0.00 in0.0 mm 0.00 in0.0 mm
10:17 AM 54.8°F12.7°C 20.5°F-6.4°C 26% 15.0 mph NE24.1 kmh NE 21.0 mph33.8 kmh 30.16 in1021.3 mb 0.00 in0.0 mm 0.00 in0.0 mm 0.00 in0.0 mm
10:12 AM 55.0°F12.8°C 21.6°F-5.8°C 27% 16.0 mph NE25.7 kmh NE 21.0 mph33.8 kmh 30.15 in1021.0 mb 0.00 in0.0 mm 0.00 in0.0 mm 0.00 in0.0 mm
10:07 AM 54.8°F12.7°C 21.4°F-5.9°C 27% 16.0 mph NE25.7 kmh NE 21.0 mph33.8 kmh 30.15 in1021.0 mb 0.00 in0.0 mm 0.00 in0.0 mm 0.00 in0.0 mm
10:02 AM 55.0°F12.8°C 21.6°F-5.8°C 27% 17.0 mph NE27.4 kmh NE 21.0 mph33.8 kmh 30.15 in1021.0 mb 0.00 in0.0 mm 0.00 in0.0 mm 0.00 in0.0 mm
09:57 AM 54.8°F12.7°C 22.3°F-5.4°C 28% 16.0 mph NE25.7 kmh NE 21.0 mph33.8 kmh 30.15 in1021.0 mb 0.00 in0.0 mm 0.00 in0.0 mm 0.00 in0.0 mm
09:52 AM 54.6°F12.6°C 22.1°F-5.5°C 28% 17.0 mph NE27.4 kmh NE 22.0 mph35.4 kmh 30.14 in1020.7 mb 0.00 in0.0 mm 0.00 in0.0 mm 0.00 in0.0 mm
09:47 AM 54.7°F12.6°C 22.2°F-5.4°C 28% 18.0 mph NE29.0 kmh NE 25.0 mph40.2 kmh 30.14 in1020.7 mb 0.00 in0.0 mm 0.00 in0.0 mm 0.00 in0.0 mm
09:42 AM 54.7°F12.6°C 21.3°F-5.9°C 27% 18.0 mph NE29.0 kmh NE 26.0 mph41.8 kmh 30.14 in1020.7 mb 0.00 in0.0 mm 0.00 in0.0 mm 0.00 in0.0 mm
09:37 AM 54.4°F12.4°C 21.9°F-5.6°C 28% 18.0 mph NE29.0 kmh NE 27.0 mph43.5 kmh 30.13 in1020.3 mb 0.00 in0.0 mm 0.00 in0.0 mm 0.00 in0.0 mm
09:32 AM 54.4°F12.4°C 21.9°F-5.6°C 28% 19.0 mph NE30.6 kmh NE 27.0 mph43.5 kmh 30.13 in1020.3 mb 0.00 in0.0 mm 0.00 in0.0 mm 0.00 in0.0 mm
09:27 AM 54.2°F12.3°C 21.8°F-5.7°C 28% 18.0 mph NE29.0 kmh NE 26.0 mph41.8 kmh 30.13 in1020.3 mb 0.00 in0.0 mm 0.00 in0.0 mm 0.00 in0.0 mm
09:22 AM 54.1°F12.3°C 22.5°F-5.3°C 29% 18.0 mph NE29.0 kmh NE 26.0 mph41.8 kmh 30.13 in1020.3 mb 0.00 in0.0 mm 0.00 in0.0 mm 0.00 in0.0 mm
09:17 AM 53.6°F12.0°C 22.9°F-5.1°C 30% 18.0 mph NE29.0 kmh NE 26.0 mph41.8 kmh 30.12 in1020.0 mb 0.00 in0.0 mm 0.00 in0.0 mm 0.00 in0.0 mm
09:12 AM 53.4°F11.9°C 22.7°F-5.2°C 30% 18.0 mph NE29.0 kmh NE 24.0 mph38.6 kmh 30.12 in1020.0 mb 0.00 in0.0 mm 0.00 in0.0 mm 0.00 in0.0 mm
09:07 AM 52.9°F11.6°C 22.3°F-5.4°C 30% 20.0 mph NE32.2 kmh NE 26.0 mph41.8 kmh 30.11 in1019.6 mb 0.00 in0.0 mm 0.00 in0.0 mm 0.00 in0.0 mm
09:02 AM 52.9°F11.6°C 22.3°F-5.4°C 30% 18.0 mph NE29.0 kmh NE 27.0 mph43.5 kmh 30.11 in1019.6 mb 0.00 in0.0 mm 0.00 in0.0 mm 0.00 in0.0 mm
08:57 AM 52.9°F11.6°C 23.0°F-5.0°C 31% 16.0 mph NNE25.7 kmh NNE 27.0 mph43.5 kmh 30.10 in1019.3 mb 0.00 in0.0 mm 0.00 in0.0 mm 0.00 in0.0 mm
08:52 AM 52.8°F11.6°C 23.0°F-5.0°C 31% 15.0 mph NNE24.1 kmh NNE 21.0 mph33.8 kmh 30.10 in1019.3 mb 0.00 in0.0 mm 0.00 in0.0 mm 0.00 in0.0 mm
08:47 AM 52.6°F11.4°C 24.3°F-4.3°C 33% 14.0 mph NNE22.5 kmh NNE 20.0 mph32.2 kmh 30.10 in1019.3 mb 0.00 in0.0 mm 0.00 in0.0 mm 0.00 in0.0 mm
08:42 AM 51.8°F11.0°C 25.0°F-3.9°C 35% 14.0 mph NNE22.5 kmh NNE 19.0 mph30.6 kmh 30.10 in1019.3 mb 0.00 in0.0 mm 0.00 in0.0 mm 0.00 in0.0 mm
08:37 AM 51.4°F10.8°C 26.0°F-3.3°C 37% 13.0 mph NNE20.9 kmh NNE 18.0 mph29.0 kmh 30.10 in1019.3 mb 0.00 in0.0 mm 0.00 in0.0 mm 0.00 in0.0 mm
08:32 AM 51.0°F10.6°C 28.1°F-2.2°C 41% 11.0 mph NE17.7 kmh NE 15.0 mph24.1 kmh 30.10 in1019.3 mb 0.00 in0.0 mm 0.00 in0.0 mm 0.00 in0.0 mm
08:27 AM 50.6°F10.3°C 28.3°F-2.1°C 42% 12.0 mph NE19.3 kmh NE 21.0 mph33.8 kmh 30.10 in1019.3 mb 0.00 in0.0 mm 0.00 in0.0 mm 0.00 in0.0 mm
08:22 AM 50.1°F10.1°C 29.0°F-1.7°C 44% 13.0 mph NE20.9 kmh NE 21.0 mph33.8 kmh 30.10 in1019.3 mb 0.00 in0.0 mm 0.00 in0.0 mm 0.00 in0.0 mm
08:17 AM 49.7°F9.8°C 29.2°F-1.6°C 45% 13.0 mph NE20.9 kmh NE 17.0 mph27.4 kmh 30.10 in1019.3 mb 0.00 in0.0 mm 0.00 in0.0 mm 0.00 in0.0 mm
08:12 AM 49.4°F9.7°C 29.5°F-1.4°C 46% 12.0 mph NE19.3 kmh NE 16.0 mph25.7 kmh 30.10 in1019.3 mb 0.00 in0.0 mm 0.00 in0.0 mm 0.00 in0.0 mm
08:07 AM 49.3°F9.6°C 29.4°F-1.4°C 46% 10.0 mph NE16.1 kmh NE 15.0 mph24.1 kmh 30.10 in1019.3 mb 0.00 in0.0 mm 0.00 in0.0 mm 0.00 in0.0 mm
08:02 AM 49.2°F9.6°C 29.3°F-1.5°C 46% 10.0 mph NE16.1 kmh NE 14.0 mph22.5 kmh 30.10 in1019.3 mb 0.00 in0.0 mm 0.00 in0.0 mm 0.00 in0.0 mm
07:57 AM 49.2°F9.6°C 29.3°F-1.5°C 46% 10.0 mph NE16.1 kmh NE 14.0 mph22.5 kmh 30.10 in1019.3 mb 0.00 in0.0 mm 0.00 in0.0 mm 0.00 in0.0 mm
07:52 AM 49.1°F9.5°C 29.2°F-1.6°C 46% 12.0 mph NE19.3 kmh NE 19.0 mph30.6 kmh 30.09 in1019.0 mb 0.00 in0.0 mm 0.00 in0.0 mm 0.00 in0.0 mm
07:47 AM 49.0°F9.4°C 29.1°F-1.6°C 46% 13.0 mph NNE20.9 kmh NNE 20.0 mph32.2 kmh 30.08 in1018.6 mb 0.00 in0.0 mm 0.00 in0.0 mm 0.00 in0.0 mm
07:42 AM 48.8°F9.3°C 28.9°F-1.7°C 46% 11.0 mph NE17.7 kmh NE 20.0 mph32.2 kmh 30.07 in1018.3 mb 0.00 in0.0 mm 0.00 in0.0 mm 0.00 in0.0 mm
07:37 AM 48.6°F9.2°C 28.7°F-1.8°C 46% 9.0 mph E14.5 kmh E 14.0 mph22.5 kmh 30.07 in1018.3 mb 0.00 in0.0 mm 0.00 in0.0 mm 0.00 in0.0 mm
07:32 AM 48.1°F8.9°C 28.8°F-1.8°C 47% 10.0 mph ESE16.1 kmh ESE 14.0 mph22.5 kmh 30.07 in1018.3 mb 0.00 in0.0 mm 0.00 in0.0 mm 0.00 in0.0 mm
07:27 AM 48.1°F8.9°C 28.8°F-1.8°C 47% 9.0 mph E14.5 kmh E 14.0 mph22.5 kmh 30.07 in1018.3 mb 0.00 in0.0 mm 0.00 in0.0 mm 0.00 in0.0 mm
07:22 AM 48.7°F9.3°C 28.3°F-2.1°C 45% 12.0 mph NE19.3 kmh NE 18.0 mph29.0 kmh 30.06 in1017.9 mb 0.00 in0.0 mm 0.00 in0.0 mm 0.00 in0.0 mm
07:17 AM 48.8°F9.3°C 28.4°F-2.0°C 45% 14.0 mph NNE22.5 kmh NNE 19.0 mph30.6 kmh 30.04 in1017.3 mb 0.00 in0.0 mm 0.00 in0.0 mm 0.00 in0.0 mm
07:12 AM 48.7°F9.3°C 28.3°F-2.1°C 45% 13.0 mph NE20.9 kmh NE 19.0 mph30.6 kmh 30.03 in1016.9 mb 0.00 in0.0 mm 0.00 in0.0 mm 0.00 in0.0 mm
07:07 AM 48.7°F9.3°C 28.3°F-2.1°C 45% 13.0 mph NE20.9 kmh NE 17.0 mph27.4 kmh 30.03 in1016.9 mb 0.00 in0.0 mm 0.00 in0.0 mm 0.00 in0.0 mm
07:02 AM 49.0°F9.4°C 28.6°F-1.9°C 45% 13.0 mph NNE20.9 kmh NNE 17.0 mph27.4 kmh 30.02 in1016.6 mb 0.00 in0.0 mm 0.00 in0.0 mm 0.00 in0.0 mm
06:57 AM 49.6°F9.8°C 28.6°F-1.9°C 44% 12.0 mph NNE19.3 kmh NNE 14.0 mph22.5 kmh 30.01 in1016.3 mb 0.00 in0.0 mm 0.00 in0.0 mm 0.00 in0.0 mm
06:52 AM 50.7°F10.4°C 29.0°F-1.7°C 43% 11.0 mph NNE17.7 kmh NNE 13.0 mph20.9 kmh 30.00 in1015.9 mb 0.00 in0.0 mm 0.00 in0.0 mm 0.00 in0.0 mm
06:47 AM 51.1°F10.6°C 29.4°F-1.4°C 43% 9.0 mph NNE14.5 kmh NNE 13.0 mph20.9 kmh 29.98 in1015.2 mb 0.00 in0.0 mm 0.00 in0.0 mm 0.00 in0.0 mm
06:42 AM 50.3°F10.2°C 29.2°F-1.6°C 44% 7.0 mph N11.3 kmh N 11.0 mph17.7 kmh 29.98 in1015.2 mb 0.00 in0.0 mm 0.00 in0.0 mm 0.00 in0.0 mm
06:37 AM 51.6°F10.9°C 29.8°F-1.2°C 43% 7.0 mph NNW11.3 kmh NNW 10.0 mph16.1 kmh 29.98 in1015.2 mb 0.00 in0.0 mm 0.00 in0.0 mm 0.00 in0.0 mm
06:32 AM 51.8°F11.0°C 30.0°F-1.1°C 43% 8.0 mph N12.9 kmh N 14.0 mph22.5 kmh 29.98 in1015.2 mb 0.00 in0.0 mm 0.00 in0.0 mm 0.00 in0.0 mm
06:27 AM 51.6°F10.9°C 29.8°F-1.2°C 43% 7.0 mph N11.3 kmh N 14.0 mph22.5 kmh 29.98 in1015.2 mb 0.00 in0.0 mm 0.00 in0.0 mm 0.00 in0.0 mm
06:22 AM 53.0°F11.7°C 29.9°F-1.2°C 41% 4.0 mph N6.4 kmh N 11.0 mph17.7 kmh 29.98 in1015.2 mb 0.00 in0.0 mm 0.00 in0.0 mm 0.00 in0.0 mm
06:17 AM 52.8°F11.6°C 30.3°F-0.9°C 42% 3.0 mph NW4.8 kmh NW 6.0 mph9.7 kmh 29.97 in1014.9 mb 0.00 in0.0 mm 0.00 in0.0 mm 0.00 in0.0 mm
06:12 AM 52.0°F11.1°C 30.2°F-1.0°C 43% 4.0 mph WNW6.4 kmh WNW 6.0 mph9.7 kmh 29.97 in1014.9 mb 0.00 in0.0 mm 0.00 in0.0 mm 0.00 in0.0 mm
06:07 AM 52.3°F11.3°C 29.9°F-1.2°C 42% 4.0 mph NW6.4 kmh NW 6.0 mph9.7 kmh 29.96 in1014.6 mb 0.00 in0.0 mm 0.00 in0.0 mm 0.00 in0.0 mm
06:02 AM 53.9°F12.2°C 30.1°F-1.1°C 40% 4.0 mph N6.4 kmh N 6.0 mph9.7 kmh 29.96 in1014.6 mb 0.00 in0.0 mm 0.00 in0.0 mm 0.00 in0.0 mm
05:57 AM 53.9°F12.2°C 30.1°F-1.1°C 40% 6.0 mph NE9.7 kmh NE 13.0 mph20.9 kmh 29.96 in1014.6 mb 0.00 in0.0 mm 0.00 in0.0 mm 0.00 in0.0 mm
05:52 AM 55.3°F12.9°C 30.1°F-1.1°C 38% 5.0 mph NNE8.0 kmh NNE 13.0 mph20.9 kmh 29.96 in1014.6 mb 0.00 in0.0 mm 0.00 in0.0 mm 0.00 in0.0 mm
05:47 AM 56.6°F13.7°C 29.9°F-1.2°C 36% 3.0 mph NNW4.8 kmh NNW 6.0 mph9.7 kmh 29.96 in1014.6 mb 0.00 in0.0 mm 0.00 in0.0 mm 0.00 in0.0 mm
05:42 AM 56.7°F13.7°C 30.0°F-1.1°C 36% 3.0 mph NW4.8 kmh NW 7.0 mph11.3 kmh 29.95 in1014.2 mb 0.00 in0.0 mm 0.00 in0.0 mm 0.00 in0.0 mm
05:37 AM 56.8°F13.8°C 29.4°F-1.4°C 35% 3.0 mph NW4.8 kmh NW 7.0 mph11.3 kmh 29.95 in1014.2 mb 0.00 in0.0 mm 0.00 in0.0 mm 0.00 in0.0 mm
05:32 AM 57.0°F13.9°C 29.6°F-1.3°C 35% 3.0 mph WNW4.8 kmh WNW 8.0 mph12.9 kmh 29.94 in1013.9 mb 0.00 in0.0 mm 0.00 in0.0 mm 0.00 in0.0 mm
05:27 AM 56.5°F13.6°C 29.8°F-1.2°C 36% 4.0 mph W6.4 kmh W 8.0 mph12.9 kmh 29.93 in1013.5 mb 0.00 in0.0 mm 0.00 in0.0 mm 0.00 in0.0 mm
05:22 AM 54.6°F12.6°C 29.5°F-1.4°C 38% 3.0 mph WNW4.8 kmh WNW 6.0 mph9.7 kmh 29.93 in1013.5 mb 0.00 in0.0 mm 0.00 in0.0 mm 0.00 in0.0 mm
05:17 AM 54.3°F12.4°C 29.2°F-1.6°C 38% 3.0 mph NNE4.8 kmh NNE 6.0 mph9.7 kmh 29.93 in1013.5 mb 0.00 in0.0 mm 0.00 in0.0 mm 0.00 in0.0 mm
05:12 AM 53.9°F12.2°C 29.5°F-1.4°C 39% 4.0 mph NE6.4 kmh NE 5.0 mph8.0 kmh 29.92 in1013.2 mb 0.00 in0.0 mm 0.00 in0.0 mm 0.00 in0.0 mm
05:07 AM 54.3°F12.4°C 29.2°F-1.6°C 38% 4.0 mph NE6.4 kmh NE 6.0 mph9.7 kmh 29.92 in1013.2 mb 0.00 in0.0 mm 0.00 in0.0 mm 0.00 in0.0 mm
05:02 AM 55.4°F13.0°C 29.5°F-1.4°C 37% 3.0 mph ENE4.8 kmh ENE 6.0 mph9.7 kmh 29.92 in1013.2 mb 0.00 in0.0 mm 0.00 in0.0 mm 0.00 in0.0 mm
04:57 AM 55.7°F13.2°C 29.1°F-1.6°C 36% 2.0 mph NW3.2 kmh NW 6.0 mph9.7 kmh 29.91 in1012.9 mb 0.00 in0.0 mm 0.00 in0.0 mm 0.00 in0.0 mm
04:52 AM 56.7°F13.7°C 28.6°F-1.9°C 34% 3.0 mph WNW4.8 kmh WNW 6.0 mph9.7 kmh 29.91 in1012.9 mb 0.00 in0.0 mm 0.00 in0.0 mm 0.00 in0.0 mm
04:47 AM 59.1°F15.1°C 29.2°F-1.6°C 32% 4.0 mph NW6.4 kmh NW 7.0 mph11.3 kmh 29.91 in1012.9 mb 0.00 in0.0 mm 0.00 in0.0 mm 0.00 in0.0 mm
04:42 AM 59.6°F15.3°C 28.9°F-1.7°C 31% 4.0 mph NW6.4 kmh NW 7.0 mph11.3 kmh 29.90 in1012.5 mb 0.00 in0.0 mm 0.00 in0.0 mm 0.00 in0.0 mm
04:37 AM 59.5°F15.3°C 28.8°F-1.8°C 31% 6.0 mph NW9.7 kmh NW 9.0 mph14.5 kmh 29.90 in1012.5 mb 0.00 in0.0 mm 0.00 in0.0 mm 0.00 in0.0 mm
04:32 AM 59.6°F15.3°C 28.9°F-1.7°C 31% 6.0 mph NW9.7 kmh NW 11.0 mph17.7 kmh 29.90 in1012.5 mb 0.00 in0.0 mm 0.00 in0.0 mm 0.00 in0.0 mm
04:27 AM 59.8°F15.4°C 29.1°F-1.6°C 31% 7.0 mph NW11.3 kmh NW 12.0 mph19.3 kmh 29.90 in1012.5 mb 0.00 in0.0 mm 0.00 in0.0 mm 0.00 in0.0 mm
04:22 AM 60.1°F15.6°C 29.3°F-1.5°C 31% 9.0 mph NW14.5 kmh NW 12.0 mph19.3 kmh 29.89 in1012.2 mb 0.00 in0.0 mm 0.00 in0.0 mm 0.00 in0.0 mm
04:17 AM 60.2°F15.7°C 29.4°F-1.4°C 31% 10.0 mph NW16.1 kmh NW 15.0 mph24.1 kmh 29.89 in1012.2 mb 0.00 in0.0 mm 0.00 in0.0 mm 0.00 in0.0 mm
04:12 AM 60.1°F15.6°C 29.3°F-1.5°C 31% 12.0 mph NNW19.3 kmh NNW 22.0 mph35.4 kmh 29.89 in1012.2 mb 0.00 in0.0 mm 0.00 in0.0 mm 0.00 in0.0 mm
04:07 AM 58.8°F14.9°C 29.7°F-1.3°C 33% 9.0 mph NW14.5 kmh NW 22.0 mph35.4 kmh 29.89 in1012.2 mb 0.00 in0.0 mm 0.00 in0.0 mm 0.00 in0.0 mm
04:02 AM 55.2°F12.9°C 29.4°F-1.4°C 37% 6.0 mph WNW9.7 kmh WNW 14.0 mph22.5 kmh 29.89 in1012.2 mb 0.00 in0.0 mm 0.00 in0.0 mm 0.00 in0.0 mm
03:57 AM 53.1°F11.7°C 28.1°F-2.2°C 38% 6.0 mph WNW9.7 kmh WNW 8.0 mph12.9 kmh 29.89 in1012.2 mb 0.00 in0.0 mm 0.00 in0.0 mm 0.00 in0.0 mm
03:52 AM 54.0°F12.2°C 28.3°F-2.1°C 37% 6.0 mph WNW9.7 kmh WNW 8.0 mph12.9 kmh 29.88 in1011.9 mb 0.00 in0.0 mm 0.00 in0.0 mm 0.00 in0.0 mm
03:47 AM 53.6°F12.0°C 27.9°F-2.3°C 37% 6.0 mph NW9.7 kmh NW 8.0 mph12.9 kmh 29.88 in1011.9 mb 0.00 in0.0 mm 0.00 in0.0 mm 0.00 in0.0 mm
03:42 AM 53.1°F11.7°C 28.1°F-2.2°C 38% 6.0 mph NW9.7 kmh NW 8.0 mph12.9 kmh 29.88 in1011.9 mb 0.00 in0.0 mm 0.00 in0.0 mm 0.00 in0.0 mm
03:37 AM 51.2°F10.7°C 27.7°F-2.4°C 40% 5.0 mph WNW8.0 kmh WNW 8.0 mph12.9 kmh 29.88 in1011.9 mb 0.00 in0.0 mm 0.00 in0.0 mm 0.00 in0.0 mm
03:32 AM 52.0°F11.1°C 27.8°F-2.3°C 39% 5.0 mph W8.0 kmh W 8.0 mph12.9 kmh 29.88 in1011.9 mb 0.00 in0.0 mm 0.00 in0.0 mm 0.00 in0.0 mm
03:27 AM 53.2°F11.8°C 27.6°F-2.4°C 37% 6.0 mph W9.7 kmh W 8.0 mph12.9 kmh 29.88 in1011.9 mb 0.00 in0.0 mm 0.00 in0.0 mm 0.00 in0.0 mm
03:22 AM 54.3°F12.4°C 27.2°F-2.7°C 35% 6.0 mph WNW9.7 kmh WNW 8.0 mph12.9 kmh 29.87 in1011.5 mb 0.00 in0.0 mm 0.00 in0.0 mm 0.00 in0.0 mm
03:17 AM 56.9°F13.8°C 27.3°F-2.6°C 32% 5.0 mph WNW8.0 kmh WNW 7.0 mph11.3 kmh 29.87 in1011.5 mb 0.00 in0.0 mm 0.00 in0.0 mm 0.00 in0.0 mm
03:12 AM 53.4°F11.9°C 27.1°F-2.7°C 36% 5.0 mph W8.0 kmh W 6.0 mph9.7 kmh 29.87 in1011.5 mb 0.00 in0.0 mm 0.00 in0.0 mm 0.00 in0.0 mm
03:07 AM 53.5°F11.9°C 27.2°F-2.7°C 36% 4.0 mph W6.4 kmh W 5.0 mph8.0 kmh 29.87 in1011.5 mb 0.00 in0.0 mm 0.00 in0.0 mm 0.00 in0.0 mm
03:02 AM 53.3°F11.8°C 27.0°F-2.8°C 36% 4.0 mph W6.4 kmh W 5.0 mph8.0 kmh 29.87 in1011.5 mb 0.00 in0.0 mm 0.00 in0.0 mm 0.00 in0.0 mm
02:57 AM 53.2°F11.8°C 26.2°F-3.2°C 35% 3.0 mph W4.8 kmh W 5.0 mph8.0 kmh 29.86 in1011.2 mb 0.00 in0.0 mm 0.00 in0.0 mm 0.00 in0.0 mm
02:52 AM 55.7°F13.2°C 26.3°F-3.2°C 32% 2.0 mph W3.2 kmh W 3.0 mph4.8 kmh 29.86 in1011.2 mb 0.00 in0.0 mm 0.00 in0.0 mm 0.00 in0.0 mm
02:47 AM 55.9°F13.3°C 25.7°F-3.5°C 31% 2.0 mph NW3.2 kmh NW 3.0 mph4.8 kmh 29.86 in1011.2 mb 0.00 in0.0 mm 0.00 in0.0 mm 0.00 in0.0 mm
02:42 AM 57.5°F14.2°C 25.5°F-3.6°C 29% 3.0 mph NNW4.8 kmh NNW 6.0 mph9.7 kmh 29.86 in1011.2 mb 0.00 in0.0 mm 0.00 in0.0 mm 0.00 in0.0 mm
02:37 AM 60.2°F15.7°C 26.1°F-3.3°C 27% 5.0 mph NNW8.0 kmh NNW 6.0 mph9.7 kmh 29.86 in1011.2 mb 0.00 in0.0 mm 0.00 in0.0 mm 0.00 in0.0 mm
02:32 AM 60.2°F15.7°C 26.1°F-3.3°C 27% 6.0 mph NNW9.7 kmh NNW 7.0 mph11.3 kmh 29.86 in1011.2 mb 0.00 in0.0 mm 0.00 in0.0 mm 0.00 in0.0 mm
02:27 AM 60.1°F15.6°C 26.0°F-3.3°C 27% 6.0 mph NNW9.7 kmh NNW 7.0 mph11.3 kmh 29.86 in1011.2 mb 0.00 in0.0 mm 0.00 in0.0 mm 0.00 in0.0 mm
02:22 AM 60.9°F16.1°C 25.7°F-3.5°C 26% 7.0 mph NW11.3 kmh NW 13.0 mph20.9 kmh 29.86 in1011.2 mb 0.00 in0.0 mm 0.00 in0.0 mm 0.00 in0.0 mm
02:17 AM 62.5°F16.9°C 25.2°F-3.8°C 24% 8.0 mph NW12.9 kmh NW 13.0 mph20.9 kmh 29.86 in1011.2 mb 0.00 in0.0 mm 0.00 in0.0 mm 0.00 in0.0 mm
02:12 AM 62.5°F16.9°C 25.2°F-3.8°C 24% 8.0 mph NW12.9 kmh NW 12.0 mph19.3 kmh 29.86 in1011.2 mb 0.00 in0.0 mm 0.00 in0.0 mm 0.00 in0.0 mm
02:07 AM 62.6°F17.0°C 25.3°F-3.7°C 24% 8.0 mph NW12.9 kmh NW 11.0 mph17.7 kmh 29.86 in1011.2 mb 0.00 in0.0 mm 0.00 in0.0 mm 0.00 in0.0 mm
02:02 AM 63.1°F17.3°C 25.7°F-3.5°C 24% 8.0 mph NW12.9 kmh NW 11.0 mph17.7 kmh 29.85 in1010.8 mb 0.00 in0.0 mm 0.00 in0.0 mm 0.00 in0.0 mm
01:57 AM 63.4°F17.4°C 24.9°F-3.9°C 23% 9.0 mph NW14.5 kmh NW 14.0 mph22.5 kmh 29.85 in1010.8 mb 0.00 in0.0 mm 0.00 in0.0 mm 0.00 in0.0 mm
01:52 AM 63.8°F17.7°C 25.3°F-3.7°C 23% 10.0 mph NW16.1 kmh NW 14.0 mph22.5 kmh 29.85 in1010.8 mb 0.00 in0.0 mm 0.00 in0.0 mm 0.00 in0.0 mm
01:47 AM 64.1°F17.8°C 25.5°F-3.6°C 23% 12.0 mph NW19.3 kmh NW 16.0 mph25.7 kmh 29.85 in1010.8 mb 0.00 in0.0 mm 0.00 in0.0 mm 0.00 in0.0 mm
01:42 AM 64.0°F17.8°C 24.4°F-4.2°C 22% 12.0 mph NW19.3 kmh NW 17.0 mph27.4 kmh 29.85 in1010.8 mb 0.00 in0.0 mm 0.00 in0.0 mm 0.00 in0.0 mm
01:37 AM 63.9°F17.7°C 24.3°F-4.3°C 22% 12.0 mph NW19.3 kmh NW 17.0 mph27.4 kmh 29.85 in1010.8 mb 0.00 in0.0 mm 0.00 in0.0 mm 0.00 in0.0 mm
01:32 AM 63.6°F17.6°C 24.0°F-4.4°C 22% 11.0 mph NW17.7 kmh NW 15.0 mph24.1 kmh 29.85 in1010.8 mb 0.00 in0.0 mm 0.00 in0.0 mm 0.00 in0.0 mm
01:27 AM 63.9°F17.7°C 23.2°F-4.9°C 21% 11.0 mph NW17.7 kmh NW 15.0 mph24.1 kmh 29.85 in1010.8 mb 0.00 in0.0 mm 0.00 in0.0 mm 0.00 in0.0 mm
01:22 AM 64.3°F17.9°C 22.3°F-5.4°C 20% 10.0 mph NW16.1 kmh NW 15.0 mph24.1 kmh 29.84 in1010.5 mb 0.00 in0.0 mm 0.00 in0.0 mm 0.00 in0.0 mm
01:17 AM 64.5°F18.1°C 22.5°F-5.3°C 20% 8.0 mph NW12.9 kmh NW 13.0 mph20.9 kmh 29.84 in1010.5 mb 0.00 in0.0 mm 0.00 in0.0 mm 0.00 in0.0 mm
01:12 AM 64.9°F18.3°C 22.8°F-5.1°C 20% 9.0 mph NW14.5 kmh NW 13.0 mph20.9 kmh 29.84 in1010.5 mb 0.00 in0.0 mm 0.00 in0.0 mm 0.00 in0.0 mm
01:07 AM 64.6°F18.1°C 22.6°F-5.2°C 20% 10.0 mph NW16.1 kmh NW 15.0 mph24.1 kmh 29.84 in1010.5 mb 0.00 in0.0 mm 0.00 in0.0 mm 0.00 in0.0 mm
01:02 AM 63.9°F17.7°C 23.2°F-4.9°C 21% 9.0 mph NW14.5 kmh NW 15.0 mph24.1 kmh 29.84 in1010.5 mb 0.00 in0.0 mm 0.00 in0.0 mm 0.00 in0.0 mm
12:57 AM 62.7°F17.1°C 23.3°F-4.8°C 22% 7.0 mph NW11.3 kmh NW 10.0 mph16.1 kmh 29.84 in1010.5 mb 0.00 in0.0 mm 0.00 in0.0 mm 0.00 in0.0 mm
12:52 AM 59.2°F15.1°C 23.4°F-4.8°C 25% 6.0 mph WNW9.7 kmh WNW 9.0 mph14.5 kmh 29.83 in1010.2 mb 0.00 in0.0 mm 0.00 in0.0 mm 0.00 in0.0 mm
12:47 AM 54.8°F12.7°C 23.9°F-4.5°C 30% 6.0 mph W9.7 kmh W 7.0 mph11.3 kmh 29.83 in1010.2 mb 0.00 in0.0 mm 0.00 in0.0 mm 0.00 in0.0 mm
12:42 AM 55.9°F13.3°C 24.1°F-4.4°C 29% 7.0 mph W11.3 kmh W 10.0 mph16.1 kmh 29.83 in1010.2 mb 0.00 in0.0 mm 0.00 in0.0 mm 0.00 in0.0 mm
12:37 AM 57.9°F14.4°C 24.1°F-4.4°C 27% 7.0 mph W11.3 kmh W 10.0 mph16.1 kmh 29.83 in1010.2 mb 0.00 in0.0 mm 0.00 in0.0 mm 0.00 in0.0 mm
12:32 AM 61.0°F16.1°C 23.9°F-4.5°C 24% 6.0 mph WNW9.7 kmh WNW 9.0 mph14.5 kmh 29.83 in1010.2 mb 0.00 in0.0 mm 0.00 in0.0 mm 0.00 in0.0 mm
12:27 AM 63.1°F17.3°C 22.5°F-5.3°C 21% 6.0 mph NW9.7 kmh NW 9.0 mph14.5 kmh 29.83 in1010.2 mb 0.00 in0.0 mm 0.00 in0.0 mm 0.00 in0.0 mm
12:22 AM 63.8°F17.7°C 21.9°F-5.6°C 20% 7.0 mph NW11.3 kmh NW 10.0 mph16.1 kmh 29.83 in1010.2 mb 0.00 in0.0 mm 0.00 in0.0 mm 0.00 in0.0 mm
12:17 AM 64.0°F17.8°C 22.1°F-5.5°C 20% 7.0 mph NW11.3 kmh NW 10.0 mph16.1 kmh 29.83 in1010.2 mb 0.00 in0.0 mm 0.00 in0.0 mm 0.00 in0.0 mm
12:12 AM 64.0°F17.8°C 22.1°F-5.5°C 20% 7.0 mph NW11.3 kmh NW 10.0 mph16.1 kmh 29.83 in1010.2 mb 0.00 in0.0 mm 0.00 in0.0 mm 0.00 in0.0 mm
12:07 AM 63.2°F17.3°C 21.4°F-5.9°C 20% 8.0 mph NW12.9 kmh NW 11.0 mph17.7 kmh 29.83 in1010.2 mb 0.00 in0.0 mm 0.00 in0.0 mm 0.00 in0.0 mm
12:02 AM 62.2°F16.8°C 21.7°F-5.7°C 21% 8.0 mph NW12.9 kmh NW 11.0 mph17.7 kmh 29.83 in1010.2 mb 0.00 in0.0 mm 0.00 in0.0 mm 0.00 in0.0 mm